Terminal Aerodrome Forecast
Issued by NWS

Home | Current Version | Previous Version | Text Only | Print | Product List | Glossary On
Versions: 1 2 3 4 5 6 7 8 9 10 11 12 13 14 15
000
FTUS44 KLZK 181900 AAA
TAFLLQ
TAF AMD
KLLQ 181923Z 1819/1918 34005KT P6SM VCTS SCT050CB BKN070
      TEMPO 1819/1822 VRB15G25KT 3SM TSRA BKN025CB
     FM190000 VRB03KT P6SM SCT120 BKN250
     FM190600 02003KT 4SM BR SCT250
     FM190900 03002KT 2SM BR SCT250
     FM191500 09006KT P6SM BKN250=

USA.gov is the U.S. government's official web portal to all federal, state and local government web resources and services.